sensor_id;sensor_type;location;lat;lon;timestamp;pressure;altitude;pressure_sealevel;temperature;humidity
43125;BME280;49182;50.788;7.318;2023-11-21T00:00:51;100257.63;;;9.00;100.00
43125;BME280;49182;50.788;7.318;2023-11-21T00:05:53;100246.94;;;9.01;100.00
43125;BME280;49182;50.788;7.318;2023-11-21T00:10:55;100255.00;;;9.00;100.00
43125;BME280;49182;50.788;7.318;2023-11-21T00:15:58;100256.66;;;9.01;100.00
43125;BME280;49182;50.788;7.318;2023-11-21T00:21:00;100250.25;;;8.93;100.00
43125;BME280;49182;50.788;7.318;2023-11-21T00:26:02;100261.56;;;8.84;100.00
43125;BME280;49182;50.788;7.318;2023-11-21T00:31:06;100265.38;;;8.71;100.00
43125;BME280;49182;50.788;7.318;2023-11-21T00:36:08;100265.72;;;8.57;100.00
43125;BME280;49182;50.788;7.318;2023-11-21T00:41:10;100277.13;;;8.46;100.00
43125;BME280;49182;50.788;7.318;2023-11-21T00:46:13;100275.88;;;8.40;100.00
43125;BME280;49182;50.788;7.318;2023-11-21T00:51:15;100279.75;;;8.25;100.00
43125;BME280;49182;50.788;7.318;2023-11-21T00:56:18;100291.22;;;8.24;100.00
43125;BME280;49182;50.788;7.318;2023-11-21T01:01:21;100297.72;;;8.20;100.00
43125;BME280;49182;50.788;7.318;2023-11-21T01:06:23;100292.97;;;8.14;100.00
43125;BME280;49182;50.788;7.318;2023-11-21T01:11:25;100298.34;;;8.12;100.00
43125;BME280;49182;50.788;7.318;2023-11-21T01:16:28;100306.53;;;7.98;100.00
43125;BME280;49182;50.788;7.318;2023-11-21T01:21:30;100235.88;;;7.41;100.00
43125;BME280;49182;50.788;7.318;2023-11-21T01:26:32;100323.06;;;7.89;100.00
43125;BME280;49182;50.788;7.318;2023-11-21T01:31:35;100326.88;;;7.85;100.00
43125;BME280;49182;50.788;7.318;2023-11-21T01:36:36;100325.34;;;7.83;100.00
43125;BME280;49182;50.788;7.318;2023-11-21T01:41:39;100329.75;;;7.82;100.00
43125;BME280;49182;50.788;7.318;2023-11-21T01:46:43;100333.22;;;7.83;100.00
43125;BME280;49182;50.788;7.318;2023-11-21T01:51:47;100336.13;;;7.68;100.00
43125;BME280;49182;50.788;7.318;2023-11-21T01:56:49;100337.75;;;7.81;100.00
43125;BME280;49182;50.788;7.318;2023-11-21T02:01:52;100340.97;;;7.84;100.00
43125;BME280;49182;50.788;7.318;2023-11-21T02:06:54;100341.56;;;7.88;100.00
43125;BME280;49182;50.788;7.318;2023-11-21T02:11:56;100342.28;;;7.90;100.00
43125;BME280;49182;50.788;7.318;2023-11-21T02:17:01;100356.72;;;7.95;100.00
43125;BME280;49182;50.788;7.318;2023-11-21T02:22:03;100367.09;;;7.97;100.00
43125;BME280;49182;50.788;7.318;2023-11-21T02:27:06;100366.63;;;7.92;100.00
43125;BME280;49182;50.788;7.318;2023-11-21T02:32:08;100261.69;;;7.25;100.00
43125;BME280;49182;50.788;7.318;2023-11-21T02:37:11;100373.56;;;7.93;100.00
43125;BME280;49182;50.788;7.318;2023-11-21T02:42:14;100391.13;;;7.92;100.00
43125;BME280;49182;50.788;7.318;2023-11-21T02:47:16;100386.97;;;7.90;100.00
43125;BME280;49182;50.788;7.318;2023-11-21T02:52:18;100392.94;;;7.92;100.00
43125;BME280;49182;50.788;7.318;2023-11-21T02:57:22;100392.56;;;7.96;100.00
43125;BME280;49182;50.788;7.318;2023-11-21T03:02:24;100386.50;;;7.96;100.00
43125;BME280;49182;50.788;7.318;2023-11-21T03:07:26;100386.50;;;7.96;100.00
43125;BME280;49182;50.788;7.318;2023-11-21T03:12:29;100376.78;;;7.96;100.00
43125;BME280;49182;50.788;7.318;2023-11-21T03:17:31;100393.16;;;8.00;100.00
43125;BME280;49182;50.788;7.318;2023-11-21T03:22:33;100392.69;;;7.95;100.00
43125;BME280;49182;50.788;7.318;2023-11-21T03:27:36;100393.66;;;7.94;100.00
43125;BME280;49182;50.788;7.318;2023-11-21T03:32:38;100410.50;;;7.91;100.00
43125;BME280;49182;50.788;7.318;2023-11-21T03:37:39;100415.53;;;7.94;100.00
43125;BME280;49182;50.788;7.318;2023-11-21T03:42:43;100358.50;;;7.52;100.00
43125;BME280;49182;50.788;7.318;2023-11-21T03:47:45;100436.09;;;7.89;100.00
43125;BME280;49182;50.788;7.318;2023-11-21T03:52:47;100440.50;;;7.89;100.00
43125;BME280;49182;50.788;7.318;2023-11-21T03:57:50;100442.66;;;7.84;100.00
43125;BME280;49182;50.788;7.318;2023-11-21T04:02:53;100348.59;;;7.33;100.00
43125;BME280;49182;50.788;7.318;2023-11-21T04:07:55;100434.75;;;7.72;100.00
43125;BME280;49182;50.788;7.318;2023-11-21T04:12:59;100429.88;;;7.68;100.00
43125;BME280;49182;50.788;7.318;2023-11-21T04:18:00;100463.91;;;7.81;100.00
43125;BME280;49182;50.788;7.318;2023-11-21T04:23:02;100471.69;;;7.82;100.00
43125;BME280;49182;50.788;7.318;2023-11-21T04:28:05;100468.47;;;7.90;100.00
43125;BME280;49182;50.788;7.318;2023-11-21T04:33:07;100486.13;;;7.88;100.00
43125;BME280;49182;50.788;7.318;2023-11-21T04:38:09;100492.22;;;7.88;100.00
43125;BME280;49182;50.788;7.318;2023-11-21T04:43:12;100491.03;;;7.92;100.00
43125;BME280;49182;50.788;7.318;2023-11-21T04:48:14;100495.44;;;7.92;100.00
43125;BME280;49182;50.788;7.318;2023-11-21T04:53:16;100496.16;;;7.94;100.00
43125;BME280;49182;50.788;7.318;2023-11-21T04:58:19;100490.31;;;7.90;100.00
43125;BME280;49182;50.788;7.318;2023-11-21T05:03:21;100453.53;;;7.68;100.00
43125;BME280;49182;50.788;7.318;2023-11-21T05:08:23;100503.44;;;7.90;100.00
43125;BME280;49182;50.788;7.318;2023-11-21T05:13:25;100508.84;;;7.89;100.00
43125;BME280;49182;50.788;7.318;2023-11-21T05:18:27;100511.47;;;7.89;100.00
43125;BME280;49182;50.788;7.318;2023-11-21T05:23:29;100508.00;;;7.88;100.00
43125;BME280;49182;50.788;7.318;2023-11-21T05:28:32;100519.09;;;7.92;100.00
43125;BME280;49182;50.788;7.318;2023-11-21T05:33:34;100483.63;;;7.64;100.00
43125;BME280;49182;50.788;7.318;2023-11-21T05:38:35;100510.03;;;7.73;100.00
43125;BME280;49182;50.788;7.318;2023-11-21T05:43:39;100532.25;;;7.81;100.00
43125;BME280;49182;50.788;7.318;2023-11-21T05:48:41;100448.13;;;7.25;100.00
43125;BME280;49182;50.788;7.318;2023-11-21T05:53:42;100361.97;;;6.62;100.00
43125;BME280;49182;50.788;7.318;2023-11-21T05:58:46;100547.75;;;7.72;100.00
43125;BME280;49182;50.788;7.318;2023-11-21T06:03:47;100549.53;;;7.72;100.00
43125;BME280;49182;50.788;7.318;2023-11-21T06:08:50;100508.56;;;7.47;100.00
43125;BME280;49182;50.788;7.318;2023-11-21T06:13:53;100564.25;;;7.75;100.00
43125;BME280;49182;50.788;7.318;2023-11-21T06:18:55;100471.25;;;7.09;100.00
43125;BME280;49182;50.788;7.318;2023-11-21T06:23:56;100587.06;;;7.74;100.00
43125;BME280;49182;50.788;7.318;2023-11-21T06:28:59;100586.97;;;7.76;100.00
43125;BME280;49182;50.788;7.318;2023-11-21T06:34:01;100593.06;;;7.76;100.00
43125;BME280;49182;50.788;7.318;2023-11-21T06:39:03;100506.13;;;7.22;100.00
43125;BME280;49182;50.788;7.318;2023-11-21T06:44:07;100606.31;;;7.75;100.00
43125;BME280;49182;50.788;7.318;2023-11-21T06:49:08;100613.59;;;7.71;100.00
43125;BME280;49182;50.788;7.318;2023-11-21T06:54:11;100611.06;;;7.69;100.00
43125;BME280;49182;50.788;7.318;2023-11-21T06:59:15;100613.22;;;7.64;100.00
43125;BME280;49182;50.788;7.318;2023-11-21T07:04:17;100612.94;;;7.56;100.00
43125;BME280;49182;50.788;7.318;2023-11-21T07:09:18;100643.94;;;7.75;100.00
43125;BME280;49182;50.788;7.318;2023-11-21T07:14:21;100654.09;;;7.80;100.00
43125;BME280;49182;50.788;7.318;2023-11-21T07:19:23;100665.34;;;7.82;100.00
43125;BME280;49182;50.788;7.318;2023-11-21T07:24:25;100673.59;;;7.88;100.00
43125;BME280;49182;50.788;7.318;2023-11-21T07:29:29;100682.53;;;7.86;100.00
43125;BME280;49182;50.788;7.318;2023-11-21T07:34:31;100647.84;;;7.58;100.00
43125;BME280;49182;50.788;7.318;2023-11-21T07:39:34;100703.13;;;7.92;100.00
43125;BME280;49182;50.788;7.318;2023-11-21T07:44:37;100709.84;;;7.96;100.00
43125;BME280;49182;50.788;7.318;2023-11-21T07:49:39;100714.50;;;8.03;100.00
43125;BME280;49182;50.788;7.318;2023-11-21T07:54:41;100725.28;;;8.11;100.00
43125;BME280;49182;50.788;7.318;2023-11-21T07:59:44;100725.88;;;8.15;100.00
43125;BME280;49182;50.788;7.318;2023-11-21T08:04:46;100730.91;;;8.18;100.00
43125;BME280;49182;50.788;7.318;2023-11-21T08:09:47;100730.22;;;8.27;100.00
43125;BME280;49182;50.788;7.318;2023-11-21T08:14:50;100571.84;;;7.44;100.00
43125;BME280;49182;50.788;7.318;2023-11-21T08:19:52;100730.28;;;8.49;100.00
43125;BME280;49182;50.788;7.318;2023-11-21T08:24:54;100734.72;;;8.60;100.00
43125;BME280;49182;50.788;7.318;2023-11-21T08:29:57;100740.81;;;8.72;100.00
43125;BME280;49182;50.788;7.318;2023-11-21T08:34:59;100743.44;;;8.83;100.00
43125;BME280;49182;50.788;7.318;2023-11-21T08:40:02;100737.59;;;8.90;100.00
43125;BME280;49182;50.788;7.318;2023-11-21T08:45:06;100748.63;;;9.07;100.00
43125;BME280;49182;50.788;7.318;2023-11-21T08:50:09;100765.59;;;9.25;100.00
43125;BME280;49182;50.788;7.318;2023-11-21T08:55:11;100705.91;;;8.81;100.00
43125;BME280;49182;50.788;7.318;2023-11-21T09:00:15;100773.94;;;9.41;100.00
43125;BME280;49182;50.788;7.318;2023-11-21T09:05:17;100785.19;;;9.54;100.00
43125;BME280;49182;50.788;7.318;2023-11-21T09:10:18;100789.09;;;9.60;100.00
43125;BME280;49182;50.788;7.318;2023-11-21T09:15:22;100806.50;;;9.62;100.00
43125;BME280;49182;50.788;7.318;2023-11-21T09:20:23;100793.31;;;9.51;100.00
43125;BME280;49182;50.788;7.318;2023-11-21T09:25:25;100813.28;;;9.65;100.00
43125;BME280;49182;50.788;7.318;2023-11-21T09:30:28;100820.25;;;9.66;100.00
43125;BME280;49182;50.788;7.318;2023-11-21T09:35:30;100837.25;;;9.73;100.00
43125;BME280;49182;50.788;7.318;2023-11-21T09:40:33;100730.03;;;9.08;100.00
43125;BME280;49182;50.788;7.318;2023-11-21T09:45:38;100841.91;;;9.81;100.00
43125;BME280;49182;50.788;7.318;2023-11-21T09:50:41;100853.50;;;9.89;100.00
43125;BME280;49182;50.788;7.318;2023-11-21T09:55:45;100797.09;;;9.69;100.00
43125;BME280;49182;50.788;7.318;2023-11-21T10:00:53;100791.66;;;9.82;100.00
43125;BME280;49182;50.788;7.318;2023-11-21T10:05:56;100832.34;;;10.23;100.00
43125;BME280;49182;50.788;7.318;2023-11-21T10:10:58;100842.31;;;10.40;100.00
43125;BME280;49182;50.788;7.318;2023-11-21T10:16:02;100833.06;;;10.45;100.00
43125;BME280;49182;50.788;7.318;2023-11-21T10:21:04;100849.78;;;10.55;100.00
43125;BME280;49182;50.788;7.318;2023-11-21T10:26:07;100848.06;;;10.45;100.00
43125;BME280;49182;50.788;7.318;2023-11-21T10:31:29;100846.97;;;10.47;100.00
43125;BME280;49182;50.788;7.318;2023-11-21T10:36:31;100860.06;;;10.38;100.00
43125;BME280;49182;50.788;7.318;2023-11-21T10:41:33;100848.44;;;10.40;100.00
43125;BME280;49182;50.788;7.318;2023-11-21T10:46:36;100857.66;;;10.46;100.00
43125;BME280;49182;50.788;7.318;2023-11-21T10:51:43;100849.50;;;10.49;100.00
43125;BME280;49182;50.788;7.318;2023-11-21T10:56:46;100863.91;;;10.66;100.00
43125;BME280;49182;50.788;7.318;2023-11-21T11:01:51;100805.75;;;10.35;100.00
43125;BME280;49182;50.788;7.318;2023-11-21T11:06:55;100861.50;;;10.63;100.00
43125;BME280;49182;50.788;7.318;2023-11-21T11:11:58;100867.03;;;10.80;100.00
43125;BME280;49182;50.788;7.318;2023-11-21T11:17:01;100836.28;;;10.70;100.00
43125;BME280;49182;50.788;7.318;2023-11-21T11:22:09;100839.22;;;10.76;100.00
43125;BME280;49182;50.788;7.318;2023-11-21T11:27:24;100573.44;;;9.12;100.00
43125;BME280;49182;50.788;7.318;2023-11-21T11:32:38;100880.06;;;10.93;98.76
43125;BME280;49182;50.788;7.318;2023-11-21T11:37:43;100877.22;;;11.06;99.31
43125;BME280;49182;50.788;7.318;2023-11-21T11:42:56;100854.09;;;10.98;97.54
43125;BME280;49182;50.788;7.318;2023-11-21T11:48:00;100891.03;;;11.09;97.29
43125;BME280;49182;50.788;7.318;2023-11-21T11:53:12;100869.13;;;10.77;98.43
43125;BME280;49182;50.788;7.318;2023-11-21T11:58:14;100897.59;;;10.94;98.93
43125;BME280;49182;50.788;7.318;2023-11-21T12:03:18;100890.78;;;10.91;99.83
43125;BME280;49182;50.788;7.318;2023-11-21T12:08:20;100887.22;;;11.02;100.00
43125;BME280;49182;50.788;7.318;2023-11-21T12:13:22;100879.22;;;11.13;99.59
43125;BME280;49182;50.788;7.318;2023-11-21T12:18:25;100892.84;;;11.18;98.24
43125;BME280;49182;50.788;7.318;2023-11-21T12:23:27;100796.03;;;10.57;98.28
43125;BME280;49182;50.788;7.318;2023-11-21T12:28:29;100901.63;;;11.19;95.95
43125;BME280;49182;50.788;7.318;2023-11-21T12:33:32;100904.19;;;11.30;97.88
43125;BME280;49182;50.788;7.318;2023-11-21T12:38:34;100907.41;;;11.33;98.67
43125;BME280;49182;50.788;7.318;2023-11-21T12:43:36;100911.03;;;11.32;96.89
43125;BME280;49182;50.788;7.318;2023-11-21T12:48:41;100913.78;;;11.31;96.51
43125;BME280;49182;50.788;7.318;2023-11-21T12:53:42;100853.84;;;11.01;95.39
43125;BME280;49182;50.788;7.318;2023-11-21T12:58:45;100913.56;;;11.44;95.80
43125;BME280;49182;50.788;7.318;2023-11-21T13:03:49;100889.84;;;11.23;95.08
43125;BME280;49182;50.788;7.318;2023-11-21T13:08:51;100910.94;;;11.44;95.36
43125;BME280;49182;50.788;7.318;2023-11-21T13:13:53;100919.06;;;11.52;96.04
43125;BME280;49182;50.788;7.318;2023-11-21T13:18:56;100924.03;;;11.45;94.19
43125;BME280;49182;50.788;7.318;2023-11-21T13:23:58;100924.13;;;11.34;93.85
43125;BME280;49182;50.788;7.318;2023-11-21T13:29:00;100927.72;;;11.33;94.76
43125;BME280;49182;50.788;7.318;2023-11-21T13:34:03;100935.38;;;11.36;95.27
43125;BME280;49182;50.788;7.318;2023-11-21T13:39:04;100944.00;;;11.28;94.74
43125;BME280;49182;50.788;7.318;2023-11-21T13:44:06;100954.25;;;11.22;95.63
43125;BME280;49182;50.788;7.318;2023-11-21T13:49:10;100960.88;;;11.16;96.47
43125;BME280;49182;50.788;7.318;2023-11-21T13:54:12;100910.94;;;10.72;96.76
43125;BME280;49182;50.788;7.318;2023-11-21T13:59:13;100972.94;;;11.09;97.75
43125;BME280;49182;50.788;7.318;2023-11-21T14:04:17;100840.94;;;10.25;97.08
43125;BME280;49182;50.788;7.318;2023-11-21T14:09:20;100960.88;;;10.95;97.35
43125;BME280;49182;50.788;7.318;2023-11-21T14:14:24;100990.16;;;11.04;97.80
43125;BME280;49182;50.788;7.318;2023-11-21T14:19:27;100990.78;;;10.96;98.53
43125;BME280;49182;50.788;7.318;2023-11-21T14:24:29;100996.44;;;10.91;98.78
43125;BME280;49182;50.788;7.318;2023-11-21T14:29:31;100975.94;;;10.84;99.09
43125;BME280;49182;50.788;7.318;2023-11-21T14:34:34;100992.75;;;10.83;99.67
43125;BME280;49182;50.788;7.318;2023-11-21T14:39:36;100994.09;;;10.77;99.24
43125;BME280;49182;50.788;7.318;2023-11-21T14:44:37;101003.38;;;10.72;99.50
43125;BME280;49182;50.788;7.318;2023-11-21T14:49:41;101013.97;;;10.61;100.00
43125;BME280;49182;50.788;7.318;2023-11-21T14:54:43;101016.84;;;10.58;100.00
43125;BME280;49182;50.788;7.318;2023-11-21T14:59:46;100957.44;;;10.20;100.00
43125;BME280;49182;50.788;7.318;2023-11-21T15:04:49;101026.69;;;10.55;100.00
43125;BME280;49182;50.788;7.318;2023-11-21T15:09:51;101025.16;;;10.53;100.00
43125;BME280;49182;50.788;7.318;2023-11-21T15:14:53;101039.78;;;10.46;100.00
43125;BME280;49182;50.788;7.318;2023-11-21T15:19:56;100958.88;;;9.91;100.00
43125;BME280;49182;50.788;7.318;2023-11-21T15:24:58;101027.72;;;10.21;100.00
43125;BME280;49182;50.788;7.318;2023-11-21T15:30:00;101033.72;;;10.23;100.00
43125;BME280;49182;50.788;7.318;2023-11-21T15:35:03;101064.41;;;10.35;100.00
43125;BME280;49182;50.788;7.318;2023-11-21T15:40:06;101026.13;;;10.07;100.00
43125;BME280;49182;50.788;7.318;2023-11-21T15:45:08;101066.94;;;10.26;100.00
43125;BME280;49182;50.788;7.318;2023-11-21T15:50:11;101074.38;;;10.21;100.00
43125;BME280;49182;50.788;7.318;2023-11-21T15:55:13;101081.06;;;10.13;100.00
43125;BME280;49182;50.788;7.318;2023-11-21T16:00:15;101086.81;;;10.07;100.00
43125;BME280;49182;50.788;7.318;2023-11-21T16:05:19;101093.28;;;10.03;100.00
43125;BME280;49182;50.788;7.318;2023-11-21T16:10:20;101102.41;;;9.99;100.00
43125;BME280;49182;50.788;7.318;2023-11-21T16:15:22;101099.78;;;9.99;100.00
43125;BME280;49182;50.788;7.318;2023-11-21T16:20:25;101114.97;;;9.96;100.00
43125;BME280;49182;50.788;7.318;2023-11-21T16:25:27;101123.16;;;9.93;100.00
43125;BME280;49182;50.788;7.318;2023-11-21T16:30:30;101078.50;;;9.56;100.00
43125;BME280;49182;50.788;7.318;2023-11-21T16:35:33;101134.53;;;9.93;100.00
43125;BME280;49182;50.788;7.318;2023-11-21T16:40:34;101141.34;;;9.96;100.00
43125;BME280;49182;50.788;7.318;2023-11-21T16:45:36;101147.72;;;9.93;100.00
43125;BME280;49182;50.788;7.318;2023-11-21T16:50:42;101149.63;;;9.91;100.00
43125;BME280;49182;50.788;7.318;2023-11-21T16:55:44;101149.84;;;9.88;100.00
43125;BME280;49182;50.788;7.318;2023-11-21T17:00:47;101152.72;;;9.85;100.00
43125;BME280;49182;50.788;7.318;2023-11-21T17:05:51;101168.44;;;9.87;100.00
43125;BME280;49182;50.788;7.318;2023-11-21T17:10:52;101183.53;;;9.85;100.00
43125;BME280;49182;50.788;7.318;2023-11-21T17:15:54;101192.50;;;9.82;100.00
43125;BME280;49182;50.788;7.318;2023-11-21T17:20:57;101163.66;;;9.57;100.00
43125;BME280;49182;50.788;7.318;2023-11-21T17:25:59;101209.19;;;9.83;100.00
43125;BME280;49182;50.788;7.318;2023-11-21T17:31:00;101208.19;;;9.72;100.00
43125;BME280;49182;50.788;7.318;2023-11-21T17:36:04;101206.75;;;9.68;100.00
43125;BME280;49182;50.788;7.318;2023-11-21T17:41:10;101196.47;;;9.53;100.00
43125;BME280;49182;50.788;7.318;2023-11-21T17:46:18;101241.47;;;9.62;100.00
43125;BME280;49182;50.788;7.318;2023-11-21T17:51:22;101244.31;;;9.59;100.00
43125;BME280;49182;50.788;7.318;2023-11-21T17:56:23;101245.31;;;9.46;100.00
43125;BME280;49182;50.788;7.318;2023-11-21T18:01:25;101266.47;;;9.57;100.00
43125;BME280;49182;50.788;7.318;2023-11-21T18:06:28;101282.97;;;9.48;100.00
43125;BME280;49182;50.788;7.318;2023-11-21T18:11:30;101281.81;;;9.39;100.00
43125;BME280;49182;50.788;7.318;2023-11-21T18:16:32;101304.59;;;9.40;98.77
43125;BME280;49182;50.788;7.318;2023-11-21T18:21:37;101310.31;;;9.34;96.74
43125;BME280;49182;50.788;7.318;2023-11-21T18:26:39;101327.94;;;9.21;97.45
43125;BME280;49182;50.788;7.318;2023-11-21T18:31:41;101340.69;;;9.14;98.40
43125;BME280;49182;50.788;7.318;2023-11-21T18:36:44;101351.78;;;9.07;99.21
43125;BME280;49182;50.788;7.318;2023-11-21T18:41:46;101363.16;;;9.07;98.36
43125;BME280;49182;50.788;7.318;2023-11-21T18:46:48;101368.72;;;8.90;97.50
43125;BME280;49182;50.788;7.318;2023-11-21T18:51:51;101390.03;;;8.87;96.86
43125;BME280;49182;50.788;7.318;2023-11-21T18:56:53;101400.13;;;8.80;95.73
43125;BME280;49182;50.788;7.318;2023-11-21T19:01:55;101408.00;;;8.68;93.80
43125;BME280;49182;50.788;7.318;2023-11-21T19:06:58;101420.38;;;8.53;92.54
43125;BME280;49182;50.788;7.318;2023-11-21T19:12:00;101431.63;;;8.42;94.53
43125;BME280;49182;50.788;7.318;2023-11-21T19:17:02;101435.81;;;8.32;93.66
43125;BME280;49182;50.788;7.318;2023-11-21T19:22:05;101439.19;;;8.20;92.24
43125;BME280;49182;50.788;7.318;2023-11-21T19:27:07;101441.47;;;8.12;90.68
43125;BME280;49182;50.788;7.318;2023-11-21T19:32:08;101446.66;;;7.99;91.83
43125;BME280;49182;50.788;7.318;2023-11-21T19:37:12;101412.94;;;7.51;92.66
43125;BME280;49182;50.788;7.318;2023-11-21T19:42:13;101456.84;;;7.77;91.63
43125;BME280;49182;50.788;7.318;2023-11-21T19:47:15;101429.47;;;7.53;90.01
43125;BME280;49182;50.788;7.318;2023-11-21T19:52:19;101471.38;;;7.54;91.04
43125;BME280;49182;50.788;7.318;2023-11-21T19:57:21;101474.78;;;7.56;90.37
43125;BME280;49182;50.788;7.318;2023-11-21T20:02:22;101476.38;;;7.45;91.53
43125;BME280;49182;50.788;7.318;2023-11-21T20:07:26;101487.91;;;7.42;90.84
43125;BME280;49182;50.788;7.318;2023-11-21T20:12:28;101495.50;;;7.32;90.01
43125;BME280;49182;50.788;7.318;2023-11-21T20:17:30;101511.78;;;7.23;90.75
43125;BME280;49182;50.788;7.318;2023-11-21T20:22:33;101519.88;;;7.20;90.18
43125;BME280;49182;50.788;7.318;2023-11-21T20:27:35;101380.63;;;6.34;90.06
43125;BME280;49182;50.788;7.318;2023-11-21T20:32:36;101533.44;;;7.13;89.72
43125;BME280;49182;50.788;7.318;2023-11-21T20:37:40;101547.78;;;7.07;90.17
43125;BME280;49182;50.788;7.318;2023-11-21T20:42:41;101554.97;;;7.04;90.21
43125;BME280;49182;50.788;7.318;2023-11-21T20:47:43;101539.88;;;6.77;90.94
43125;BME280;49182;50.788;7.318;2023-11-21T20:52:47;101536.75;;;6.71;91.57
43125;BME280;49182;50.788;7.318;2023-11-21T20:57:49;101561.22;;;6.71;91.27
43125;BME280;49182;50.788;7.318;2023-11-21T21:02:51;101507.00;;;6.25;93.23
43125;BME280;49182;50.788;7.318;2023-11-21T21:07:54;101609.97;;;6.75;94.24
43125;BME280;49182;50.788;7.318;2023-11-21T21:12:56;101607.00;;;6.81;94.66
43125;BME280;49182;50.788;7.318;2023-11-21T21:17:58;101620.91;;;6.83;94.87
43125;BME280;49182;50.788;7.318;2023-11-21T21:23:01;101617.09;;;6.89;95.01
43125;BME280;49182;50.788;7.318;2023-11-21T21:28:03;101634.44;;;6.91;95.74
43125;BME280;49182;50.788;7.318;2023-11-21T21:33:05;101634.44;;;6.91;96.62
43125;BME280;49182;50.788;7.318;2023-11-21T21:38:08;101635.97;;;6.96;95.43
43125;BME280;49182;50.788;7.318;2023-11-21T21:43:09;101535.28;;;6.35;95.72
43125;BME280;49182;50.788;7.318;2023-11-21T21:48:11;101630.66;;;6.97;92.58
43125;BME280;49182;50.788;7.318;2023-11-21T21:53:14;101628.25;;;6.93;90.93
43125;BME280;49182;50.788;7.318;2023-11-21T21:58:17;101638.44;;;6.83;89.82
43125;BME280;49182;50.788;7.318;2023-11-21T22:03:18;101620.22;;;6.64;90.55
43125;BME280;49182;50.788;7.318;2023-11-21T22:08:21;101644.28;;;6.72;87.07
43125;BME280;49182;50.788;7.318;2023-11-21T22:13:23;101660.69;;;6.60;84.25
43125;BME280;49182;50.788;7.318;2023-11-21T22:18:25;101677.56;;;6.39;85.70
43125;BME280;49182;50.788;7.318;2023-11-21T22:23:28;101680.31;;;6.20;88.02
43125;BME280;49182;50.788;7.318;2023-11-21T22:28:29;101690.91;;;6.01;87.93
43125;BME280;49182;50.788;7.318;2023-11-21T22:33:32;101638.03;;;5.42;89.36
43125;BME280;49182;50.788;7.318;2023-11-21T22:38:35;101736.81;;;5.74;89.06
43125;BME280;49182;50.788;7.318;2023-11-21T22:43:37;101734.16;;;5.57;89.87
43125;BME280;49182;50.788;7.318;2023-11-21T22:48:40;101742.06;;;5.38;91.36
43125;BME280;49182;50.788;7.318;2023-11-21T22:53:43;101742.03;;;5.21;92.42
43125;BME280;49182;50.788;7.318;2023-11-21T22:58:46;101730.59;;;5.05;94.59
43125;BME280;49182;50.788;7.318;2023-11-21T23:03:48;101742.03;;;5.02;97.12
43125;BME280;49182;50.788;7.318;2023-11-21T23:08:51;101731.00;;;4.96;97.19
43125;BME280;49182;50.788;7.318;2023-11-21T23:13:52;101694.28;;;4.60;97.81
43125;BME280;49182;50.788;7.318;2023-11-21T23:18:54;101742.25;;;4.79;99.16
43125;BME280;49182;50.788;7.318;2023-11-21T23:23:58;101713.00;;;4.51;100.00
43125;BME280;49182;50.788;7.318;2023-11-21T23:28:59;101749.09;;;4.63;100.00
43125;BME280;49182;50.788;7.318;2023-11-21T23:34:02;101749.28;;;4.58;100.00
43125;BME280;49182;50.788;7.318;2023-11-21T23:39:06;101755.38;;;4.59;100.00
43125;BME280;49182;50.788;7.318;2023-11-21T23:44:08;101753.75;;;4.56;100.00
43125;BME280;49182;50.788;7.318;2023-11-21T23:49:09;101751.31;;;4.52;100.00
43125;BME280;49182;50.788;7.318;2023-11-21T23:54:13;101767.53;;;4.60;100.00
43125;BME280;49182;50.788;7.318;2023-11-21T23:59:14;101773.47;;;4.63;100.00
